createdAt,value
2022-12-25T00:01:38.986Z,6.50
2022-12-25T00:04:05.624Z,6.80
2022-12-25T00:06:32.065Z,6.13
2022-12-25T00:08:58.496Z,6.10
2022-12-25T00:11:24.949Z,6.65
2022-12-25T00:13:51.392Z,7.03
2022-12-25T00:16:27.191Z,6.27
2022-12-25T00:18:55.710Z,6.25
2022-12-25T00:21:22.558Z,6.53
2022-12-25T00:23:57.650Z,6.47
2022-12-25T00:26:25.298Z,6.45
2022-12-25T00:28:56.921Z,6.17
2022-12-25T00:31:25.056Z,7.50
2022-12-25T00:33:52.826Z,6.07
2022-12-25T00:36:21.759Z,6.03
2022-12-25T00:38:48.451Z,6.38
2022-12-25T00:41:18.044Z,6.30
2022-12-25T00:43:44.673Z,5.75
2022-12-25T00:46:13.096Z,6.53
2022-12-25T00:48:40.606Z,6.57
2022-12-25T00:51:11.391Z,6.43
2022-12-25T00:53:37.961Z,7.30
2022-12-25T00:56:06.181Z,5.75
2022-12-25T00:58:34.857Z,5.28
2022-12-25T01:01:02.726Z,6.00
2022-12-25T01:03:29.258Z,5.50
2022-12-25T01:05:58.658Z,5.90
2022-12-25T01:08:26.332Z,5.93
2022-12-25T01:11:09.297Z,7.78
2022-12-25T01:13:37.258Z,8.35
2022-12-25T01:16:10.786Z,5.82
2022-12-25T01:18:38.378Z,6.03
2022-12-25T01:21:08.850Z,5.47
2022-12-25T01:23:35.549Z,6.07
2022-12-25T01:26:06.648Z,6.68
2022-12-25T01:28:33.358Z,5.97
2022-12-25T01:30:59.762Z,5.53
2022-12-25T01:33:26.840Z,5.78
2022-12-25T01:35:53.298Z,5.47
2022-12-25T01:38:19.756Z,5.50
2022-12-25T01:40:46.291Z,6.35
2022-12-25T01:43:33.655Z,6.03
2022-12-25T01:46:00.444Z,5.88
2022-12-25T01:48:39.234Z,6.65
2022-12-25T01:51:22.216Z,6.00
2022-12-25T01:53:48.713Z,5.43
2022-12-25T01:56:15.182Z,5.37
2022-12-25T01:58:41.818Z,5.55
2022-12-25T02:01:08.505Z,5.65
2022-12-25T02:03:35.005Z,5.65
2022-12-25T02:06:03.624Z,6.15
2022-12-25T02:08:30.916Z,5.53
2022-12-25T02:10:57.347Z,5.70
2022-12-25T02:13:23.821Z,5.85
2022-12-25T02:16:13.681Z,6.35
2022-12-25T02:18:43.738Z,5.93
2022-12-25T02:21:19.142Z,6.27
2022-12-25T02:23:57.514Z,5.95
2022-12-25T02:26:30.035Z,4.85
2022-12-25T02:29:17.464Z,5.47
2022-12-25T02:31:53.914Z,5.22
2022-12-25T02:34:44.116Z,5.53
2022-12-25T02:37:24.189Z,5.40
2022-12-25T02:39:58.737Z,5.30
2022-12-25T02:42:54.829Z,5.88
2022-12-25T02:46:02.805Z,5.47
2022-12-25T02:48:52.234Z,5.37
2022-12-25T02:51:42.094Z,6.28
2022-12-25T02:54:32.012Z,6.50
2022-12-25T02:57:21.398Z,6.50
2022-12-25T03:00:09.637Z,5.97
2022-12-25T03:02:56.515Z,6.50
2022-12-25T03:05:45.431Z,6.13
2022-12-25T03:08:16.648Z,7.03
2022-12-25T03:11:05.190Z,5.90
2022-12-25T03:13:38.968Z,6.45
2022-12-25T03:16:25.453Z,6.13
2022-12-25T03:18:55.463Z,6.68
2022-12-25T03:21:40.747Z,6.68
2022-12-25T03:24:25.726Z,5.25
2022-12-25T03:26:55.336Z,5.97
2022-12-25T03:29:45.548Z,6.10
2022-12-25T03:32:27.118Z,5.60
2022-12-25T03:35:23.828Z,6.85
2022-12-25T03:38:31.112Z,6.03
2022-12-25T03:41:33.324Z,5.18
2022-12-25T03:44:27.083Z,5.40
2022-12-25T03:47:35.175Z,5.20
2022-12-25T03:50:23.452Z,5.70
2022-12-25T03:53:11.374Z,5.50
2022-12-25T03:55:59.216Z,5.90
2022-12-25T03:58:45.712Z,5.30
2022-12-25T04:01:31.927Z,5.97
2022-12-25T04:04:17.107Z,6.22
2022-12-25T04:07:02.685Z,5.40
2022-12-25T04:09:47.521Z,5.07
2022-12-25T04:12:32.559Z,5.73
2022-12-25T04:15:17.352Z,6.57
2022-12-25T04:18:02.217Z,5.05
2022-12-25T04:20:47.210Z,5.65
2022-12-25T04:23:31.938Z,5.97
2022-12-25T04:26:19.126Z,5.63
2022-12-25T04:29:03.950Z,4.32
2022-12-25T04:31:48.805Z,5.88
2022-12-25T04:34:34.089Z,5.68
2022-12-25T04:37:00.529Z,5.60
2022-12-25T04:39:26.948Z,5.33
2022-12-25T04:41:53.427Z,5.00
2022-12-25T04:44:19.829Z,5.72
2022-12-25T04:46:46.355Z,4.65
2022-12-25T04:49:12.844Z,4.50
2022-12-25T04:51:39.318Z,5.77
2022-12-25T04:54:05.702Z,4.78
2022-12-25T04:56:33.357Z,6.13
2022-12-25T04:58:59.982Z,4.63
2022-12-25T05:01:26.447Z,4.50
2022-12-25T05:03:52.981Z,5.10
2022-12-25T05:06:20.069Z,4.97
2022-12-25T05:08:46.530Z,4.70
2022-12-25T05:11:15.640Z,5.13
2022-12-25T05:13:42.359Z,4.57
2022-12-25T05:16:14.725Z,4.00
2022-12-25T05:18:41.318Z,4.55
2022-12-25T05:21:08.099Z,4.43
2022-12-25T05:23:34.624Z,4.82
2022-12-25T05:26:07.937Z,4.82
2022-12-25T05:28:35.782Z,4.83
2022-12-25T05:31:02.353Z,4.50
2022-12-25T05:33:28.899Z,4.15
2022-12-25T05:35:55.298Z,3.70
2022-12-25T05:38:21.729Z,3.95
2022-12-25T05:40:51.287Z,4.07
2022-12-25T05:43:19.390Z,3.85
2022-12-25T05:45:45.801Z,4.43
2022-12-25T05:48:12.306Z,3.45
2022-12-25T05:50:38.988Z,4.10
2022-12-25T05:53:08.585Z,4.13
2022-12-25T05:55:39.950Z,4.10
2022-12-25T05:58:08.334Z,3.67
2022-12-25T06:00:35.448Z,3.78
2022-12-25T06:03:02.119Z,4.47
2022-12-25T06:05:28.681Z,3.53
2022-12-25T06:07:55.117Z,4.32
2022-12-25T06:10:21.752Z,4.35
2022-12-25T06:12:48.408Z,3.55
2022-12-25T06:15:15.063Z,3.92
2022-12-25T06:17:41.712Z,3.37
2022-12-25T06:20:08.760Z,4.07
2022-12-25T06:22:35.505Z,3.85
2022-12-25T06:25:02.085Z,3.47
2022-12-25T06:27:28.621Z,4.05
2022-12-25T06:29:55.386Z,3.80
2022-12-25T06:32:21.830Z,4.05
2022-12-25T06:34:48.876Z,4.55
2022-12-25T06:37:15.470Z,3.90
2022-12-25T06:39:41.893Z,3.58
2022-12-25T06:42:08.352Z,4.30
2022-12-25T06:44:34.801Z,3.65
2022-12-25T06:47:01.259Z,3.90
2022-12-25T06:49:27.699Z,3.75
2022-12-25T06:51:54.151Z,3.47
2022-12-25T06:54:20.896Z,2.83
2022-12-25T06:56:47.806Z,3.47
2022-12-25T06:59:14.549Z,5.45
2022-12-25T07:01:55.575Z,3.85
2022-12-25T07:04:35.715Z,4.22
2022-12-25T07:07:08.338Z,3.17
2022-12-25T07:09:35.692Z,3.72
2022-12-25T07:12:16.342Z,3.70
2022-12-25T07:14:43.353Z,3.92
2022-12-25T07:17:09.744Z,4.10
2022-12-25T07:19:42.704Z,3.20
2022-12-25T07:22:10.977Z,3.03
2022-12-25T07:24:37.377Z,3.25
2022-12-25T07:27:03.881Z,3.10
2022-12-25T07:29:30.311Z,2.60
2022-12-25T07:31:57.117Z,3.10
2022-12-25T07:34:23.974Z,2.90
2022-12-25T07:36:50.529Z,3.28
2022-12-25T07:39:17.664Z,3.90
2022-12-25T07:41:44.710Z,3.35
2022-12-25T07:44:11.172Z,4.23
2022-12-25T07:46:37.606Z,4.13
2022-12-25T07:49:04.068Z,3.35
2022-12-25T07:51:30.552Z,3.85
2022-12-25T07:53:57.329Z,3.70
2022-12-25T07:56:23.970Z,4.73
2022-12-25T07:58:50.484Z,3.50
2022-12-25T08:01:26.759Z,3.95
2022-12-25T08:03:55.931Z,4.20
2022-12-25T08:06:26.779Z,5.07
2022-12-25T08:08:53.248Z,4.60
2022-12-25T08:11:19.748Z,6.53
2022-12-25T08:13:46.227Z,5.78
2022-12-25T08:16:12.661Z,7.10
2022-12-25T08:18:40.225Z,5.55
2022-12-25T08:21:12.327Z,4.83
2022-12-25T08:23:41.273Z,4.03
2022-12-25T08:26:08.882Z,3.60
2022-12-25T08:28:36.061Z,3.03
2022-12-25T08:31:07.581Z,3.47
2022-12-25T08:33:34.247Z,3.77
2022-12-25T08:36:06.524Z,3.90
2022-12-25T08:38:33.425Z,3.63
2022-12-25T08:40:59.901Z,4.07
2022-12-25T08:43:26.595Z,3.58
2022-12-25T08:45:53.379Z,3.33
2022-12-25T08:48:20.544Z,4.60
2022-12-25T08:50:48.908Z,4.45
2022-12-25T08:53:15.864Z,3.80
2022-12-25T08:55:44.705Z,5.00
2022-12-25T08:58:12.061Z,7.17
2022-12-25T09:00:40.932Z,8.18
2022-12-25T09:03:07.745Z,8.50
2022-12-25T09:05:35.914Z,7.55
2022-12-25T09:08:02.714Z,11.02
2022-12-25T09:10:29.833Z,7.87
2022-12-25T09:12:57.017Z,7.25
2022-12-25T09:15:23.781Z,5.13
2022-12-25T09:17:50.464Z,4.28
2022-12-25T09:20:17.106Z,4.03
2022-12-25T09:22:44.098Z,3.07
2022-12-25T09:25:12.205Z,3.47
2022-12-25T09:27:39.283Z,3.80
2022-12-25T09:30:07.243Z,3.92
2022-12-25T09:32:33.949Z,4.53
2022-12-25T09:35:00.446Z,2.80
2022-12-25T09:37:27.863Z,3.75
2022-12-25T09:39:54.404Z,3.00
2022-12-25T09:42:25.173Z,3.42
2022-12-25T09:45:04.555Z,3.90
2022-12-25T09:47:38.374Z,2.93
2022-12-25T09:50:23.699Z,3.35
2022-12-25T09:52:57.595Z,3.15
2022-12-25T09:55:28.842Z,2.40
2022-12-25T09:58:01.199Z,3.58
2022-12-25T10:00:38.125Z,2.70
2022-12-25T10:03:32.937Z,3.10
2022-12-25T10:06:05.547Z,3.95
2022-12-25T10:08:59.394Z,4.60
2022-12-25T10:12:11.760Z,5.18
2022-12-25T10:14:57.054Z,4.60
2022-12-25T10:17:32.363Z,4.60
2022-12-25T10:20:34.542Z,3.88
2022-12-25T10:23:03.890Z,4.47
2022-12-25T10:25:31.721Z,4.60
2022-12-25T10:28:09.881Z,4.60
2022-12-25T10:30:36.842Z,5.30
2022-12-25T10:33:03.565Z,4.65
2022-12-25T10:35:31.698Z,5.35
2022-12-25T10:38:11.627Z,4.85
2022-12-25T10:40:51.786Z,5.60
2022-12-25T10:43:23.991Z,4.68
2022-12-25T10:45:50.548Z,4.93
2022-12-25T10:48:26.463Z,5.30
2022-12-25T10:50:53.056Z,4.63
2022-12-25T10:53:27.566Z,4.73
2022-12-25T10:56:01.595Z,4.60
2022-12-25T10:58:29.154Z,4.18
2022-12-25T11:00:59.951Z,4.55
2022-12-25T11:03:32.740Z,4.50
2022-12-25T11:06:02.913Z,4.97
2022-12-25T11:08:31.468Z,4.75
2022-12-25T11:11:06.376Z,4.47
2022-12-25T11:13:50.689Z,5.50
2022-12-25T11:16:38.562Z,5.68
2022-12-25T11:19:24.051Z,4.70
2022-12-25T11:21:52.861Z,4.78
2022-12-25T11:24:26.004Z,4.43
2022-12-25T11:26:55.565Z,5.03
2022-12-25T11:29:42.296Z,4.55
2022-12-25T11:32:19.303Z,5.77
2022-12-25T11:34:47.823Z,4.63
2022-12-25T11:37:48.852Z,5.15
2022-12-25T11:40:22.684Z,4.85
2022-12-25T11:43:07.585Z,3.97
2022-12-25T11:45:45.364Z,4.30
2022-12-25T11:48:17.996Z,4.78
2022-12-25T11:50:55.112Z,4.90
2022-12-25T11:53:39.664Z,4.88
2022-12-25T11:56:10.274Z,4.35
2022-12-25T11:58:44.661Z,4.30
2022-12-25T12:01:37.219Z,4.45
2022-12-25T12:04:14.056Z,4.22
2022-12-25T12:06:50.974Z,4.97
2022-12-25T12:09:35.104Z,5.38
2022-12-25T12:12:09.573Z,5.50
2022-12-25T12:14:48.501Z,5.32
2022-12-25T12:17:18.684Z,5.82
2022-12-25T12:19:45.521Z,5.10
2022-12-25T12:22:20.232Z,5.28
2022-12-25T12:25:14.999Z,6.37
2022-12-25T12:27:42.108Z,7.63
2022-12-25T12:30:24.114Z,6.68
2022-12-25T12:32:53.971Z,6.55
2022-12-25T12:35:33.673Z,4.72
2022-12-25T12:38:07.646Z,5.17
2022-12-25T12:40:41.531Z,4.75
2022-12-25T12:43:44.063Z,6.30
2022-12-25T12:46:26.086Z,5.45
2022-12-25T12:49:20.022Z,6.32
2022-12-25T12:51:46.575Z,6.23
2022-12-25T12:54:24.525Z,5.90
2022-12-25T12:57:04.786Z,20.90
2022-12-25T12:59:40.053Z,18.88
2022-12-25T13:02:24.606Z,18.10
2022-12-25T13:05:19.072Z,11.43
2022-12-25T13:08:07.122Z,13.30
2022-12-25T13:10:37.520Z,12.45
2022-12-25T13:13:18.415Z,12.10
2022-12-25T13:15:47.461Z,8.25
2022-12-25T13:18:14.884Z,9.53
2022-12-25T13:21:04.948Z,7.70
2022-12-25T13:23:36.769Z,7.03
2022-12-25T13:26:13.880Z,7.43
2022-12-25T13:28:40.446Z,9.02
2022-12-25T13:31:12.777Z,7.73
2022-12-25T13:33:41.664Z,13.63
2022-12-25T13:36:13.804Z,8.25
2022-12-25T13:38:49.463Z,7.70
2022-12-25T13:41:38.113Z,9.02
2022-12-25T13:44:16.067Z,10.23
2022-12-25T13:46:42.694Z,10.13
2022-12-25T13:49:14.950Z,10.80
2022-12-25T13:51:51.560Z,13.93
2022-12-25T13:54:23.786Z,14.55
2022-12-25T13:56:56.543Z,17.20
2022-12-25T13:59:30.626Z,15.88
2022-12-25T14:01:58.040Z,11.73
2022-12-25T14:04:30.792Z,9.88
2022-12-25T14:07:12.446Z,11.02
2022-12-25T14:09:40.756Z,13.53
2022-12-25T14:12:11.757Z,13.48
2022-12-25T14:14:43.329Z,11.95
2022-12-25T14:17:11.863Z,12.10
2022-12-25T14:19:38.596Z,12.98
2022-12-25T14:22:11.753Z,12.30
2022-12-25T14:24:39.732Z,9.60
2022-12-25T14:27:17.829Z,7.90
2022-12-25T14:29:47.248Z,8.23
2022-12-25T14:32:23.990Z,11.43
2022-12-25T14:34:57.220Z,8.87
2022-12-25T14:37:31.045Z,9.00
2022-12-25T14:40:05.037Z,8.05
2022-12-25T14:42:35.050Z,7.25
2022-12-25T14:45:06.565Z,8.75
2022-12-25T14:47:52.575Z,8.30
2022-12-25T14:50:39.375Z,8.07
2022-12-25T14:53:18.117Z,8.25
2022-12-25T14:55:50.091Z,8.15
2022-12-25T14:58:22.169Z,9.23
2022-12-25T15:01:02.958Z,8.53
2022-12-25T15:03:32.469Z,8.43
2022-12-25T15:06:21.059Z,8.38
2022-12-25T15:08:58.883Z,7.90
2022-12-25T15:11:25.747Z,9.30
2022-12-25T15:13:52.252Z,8.47
2022-12-25T15:16:56.789Z,8.50
2022-12-25T15:19:34.779Z,8.93
2022-12-25T15:22:03.835Z,8.45
2022-12-25T15:24:30.254Z,8.25
2022-12-25T15:27:00.205Z,8.47
2022-12-25T15:29:52.150Z,8.38
2022-12-25T15:32:21.835Z,9.90
2022-12-25T15:34:49.877Z,10.18
2022-12-25T15:37:17.333Z,10.23
2022-12-25T15:39:43.761Z,9.40
2022-12-25T15:42:16.032Z,10.65
2022-12-25T15:44:42.910Z,11.45
2022-12-25T15:47:11.165Z,9.63
2022-12-25T15:49:38.015Z,8.70
2022-12-25T15:52:06.345Z,8.10
2022-12-25T15:54:33.179Z,8.60
2022-12-25T15:57:05.427Z,10.10
2022-12-25T15:59:32.391Z,10.90
2022-12-25T16:02:01.543Z,10.05
2022-12-25T16:04:31.229Z,11.93
2022-12-25T16:07:02.481Z,18.48
2022-12-25T16:09:28.965Z,27.65
2022-12-25T16:11:55.360Z,15.10
2022-12-25T16:14:21.842Z,11.95
2022-12-25T16:16:48.366Z,10.70
2022-12-25T16:19:14.789Z,10.38
2022-12-25T16:21:43.505Z,8.30
2022-12-25T16:24:10.733Z,7.90
2022-12-25T16:26:37.178Z,8.48
2022-12-25T16:29:07.577Z,14.97
2022-12-25T16:31:35.433Z,13.25
2022-12-25T16:34:02.406Z,12.20
2022-12-25T16:36:29.011Z,10.25
2022-12-25T16:38:55.440Z,11.13
2022-12-25T16:41:21.995Z,13.03
2022-12-25T16:43:48.704Z,13.13
2022-12-25T16:46:25.270Z,14.60
2022-12-25T16:48:51.814Z,13.40
2022-12-25T16:51:20.890Z,13.02
2022-12-25T16:53:47.749Z,11.80
2022-12-25T16:56:21.139Z,9.52
2022-12-25T16:58:48.319Z,8.88
2022-12-25T17:01:17.983Z,10.05
2022-12-25T17:03:45.543Z,15.05
2022-12-25T17:06:22.555Z,12.40
2022-12-25T17:08:50.623Z,13.65
2022-12-25T17:11:19.445Z,13.63
2022-12-25T17:13:47.601Z,13.10
2022-12-25T17:16:17.849Z,13.32
2022-12-25T17:18:47.474Z,11.53
2022-12-25T17:21:19.318Z,10.38
2022-12-25T17:23:49.004Z,9.40
2022-12-25T17:26:15.496Z,14.05
2022-12-25T17:28:47.378Z,12.88
2022-12-25T17:31:14.541Z,12.83
2022-12-25T17:34:11.039Z,11.80
2022-12-25T17:36:37.506Z,10.93
2022-12-25T17:39:05.787Z,11.27
2022-12-25T17:41:32.806Z,12.88
2022-12-25T17:43:59.285Z,12.53
2022-12-25T17:46:28.884Z,12.93
2022-12-25T17:49:01.693Z,15.32
2022-12-25T17:51:31.847Z,15.63
2022-12-25T17:56:46.149Z,14.37
2022-12-25T17:59:18.063Z,16.17
2022-12-25T18:01:51.321Z,15.05
2022-12-25T18:04:17.908Z,14.60
2022-12-25T18:06:49.946Z,13.60
2022-12-25T18:09:16.331Z,11.20
2022-12-25T18:11:43.290Z,12.63
2022-12-25T18:14:16.017Z,12.85
2022-12-25T18:16:44.751Z,11.77
2022-12-25T18:19:16.164Z,11.77
2022-12-25T18:21:45.448Z,13.40
2022-12-25T18:24:12.061Z,13.18
2022-12-25T18:26:38.875Z,12.88
2022-12-25T18:29:08.681Z,14.32
2022-12-25T18:31:37.926Z,14.07
2022-12-25T18:34:04.631Z,12.10
2022-12-25T18:36:34.165Z,11.77
2022-12-25T18:39:00.694Z,12.73
2022-12-25T18:41:28.677Z,10.13
2022-12-25T18:43:56.038Z,10.20
2022-12-25T18:46:27.351Z,9.83
2022-12-25T18:48:55.322Z,10.25
2022-12-25T18:51:21.828Z,9.98
2022-12-25T18:56:32.403Z,11.60
2022-12-25T18:58:59.828Z,10.60
2022-12-25T19:01:26.408Z,9.90
2022-12-25T19:03:57.311Z,11.02
2022-12-25T19:06:33.264Z,13.45
2022-12-25T19:09:07.716Z,17.10
2022-12-25T19:11:46.515Z,14.27
2022-12-25T19:14:17.723Z,13.70
2022-12-25T19:16:44.454Z,13.25
2022-12-25T19:19:11.419Z,13.82
2022-12-25T19:21:37.923Z,13.80
2022-12-25T19:24:04.690Z,15.03
2022-12-25T19:26:31.101Z,14.23
2022-12-25T19:28:57.883Z,15.93
2022-12-25T19:31:24.776Z,14.02
2022-12-25T19:33:51.313Z,13.77
2022-12-25T19:36:17.850Z,13.07
2022-12-25T19:38:44.446Z,14.60
2022-12-25T19:41:16.144Z,13.35
2022-12-25T19:43:44.374Z,13.25
2022-12-25T19:46:16.988Z,14.38
2022-12-25T19:48:43.788Z,12.20
2022-12-25T19:51:19.063Z,11.23
2022-12-25T19:53:46.586Z,11.68
2022-12-25T19:56:13.207Z,10.02
2022-12-25T19:58:40.022Z,10.65
2022-12-25T20:03:54.157Z,9.13
2022-12-25T20:06:29.357Z,10.10
2022-12-25T20:08:58.729Z,9.23
2022-12-25T20:11:46.766Z,9.45
2022-12-25T20:14:16.142Z,11.13
2022-12-25T20:16:44.831Z,11.93
2022-12-25T20:19:13.029Z,9.45
2022-12-25T20:21:42.665Z,8.57
2022-12-25T20:24:11.005Z,9.38
2022-12-25T20:26:38.904Z,8.50
2022-12-25T20:29:05.605Z,9.10
2022-12-25T20:31:34.414Z,8.57
2022-12-25T20:34:08.818Z,7.30
2022-12-25T20:36:37.496Z,8.15
2022-12-25T20:39:08.562Z,8.00
2022-12-25T20:41:35.101Z,6.70
2022-12-25T20:44:02.020Z,7.78
2022-12-25T20:46:28.566Z,8.40
2022-12-25T20:48:55.071Z,7.75
2022-12-25T20:51:24.283Z,7.57
2022-12-25T20:53:52.101Z,8.25
2022-12-25T20:56:20.190Z,7.75
2022-12-25T20:58:46.867Z,7.88
2022-12-25T21:01:17.091Z,8.48
2022-12-25T21:03:44.702Z,9.17
2022-12-25T21:06:12.254Z,8.48
2022-12-25T21:08:40.641Z,8.52
2022-12-25T21:11:08.204Z,9.60
2022-12-25T21:13:40.362Z,10.05
2022-12-25T21:16:13.286Z,10.23
2022-12-25T21:18:39.740Z,9.88
2022-12-25T21:21:07.571Z,10.52
2022-12-25T21:23:36.022Z,9.50
2022-12-25T21:26:31.305Z,10.00
2022-12-25T21:29:00.379Z,10.10
2022-12-25T21:31:28.113Z,9.82
2022-12-25T21:33:55.758Z,8.88
2022-12-25T21:36:31.448Z,8.98
2022-12-25T21:39:02.090Z,7.30
2022-12-25T21:41:30.973Z,8.67
2022-12-25T21:43:57.898Z,7.80
2022-12-25T21:46:25.384Z,9.70
2022-12-25T21:48:51.991Z,8.60
2022-12-25T21:51:40.230Z,8.60
2022-12-25T21:54:07.195Z,9.60
2022-12-25T21:56:43.049Z,9.30
2022-12-25T21:59:12.548Z,8.63
2022-12-25T22:01:39.139Z,8.27
2022-12-25T22:04:10.028Z,9.20
2022-12-25T22:06:55.682Z,9.27
2022-12-25T22:09:23.014Z,9.25
2022-12-25T22:12:08.244Z,9.65
2022-12-25T22:14:52.657Z,9.10
2022-12-25T22:17:44.902Z,8.13
2022-12-25T22:20:17.738Z,7.77
2022-12-25T22:22:44.555Z,7.68
2022-12-25T22:25:11.993Z,7.88
2022-12-25T22:27:40.053Z,8.52
2022-12-25T22:30:10.131Z,8.15
2022-12-25T22:32:37.189Z,7.90
2022-12-25T22:35:04.045Z,7.15
2022-12-25T22:37:30.520Z,7.40
2022-12-25T22:39:57.423Z,6.55
2022-12-25T22:42:24.000Z,5.97
2022-12-25T22:44:50.533Z,6.67
2022-12-25T22:47:17.003Z,7.00
2022-12-25T22:49:43.404Z,6.82
2022-12-25T22:52:10.118Z,6.53
2022-12-25T22:54:37.010Z,5.60
2022-12-25T22:57:03.818Z,6.30
2022-12-25T22:59:30.279Z,6.70
2022-12-25T23:01:56.888Z,6.50
2022-12-25T23:04:23.879Z,6.20
2022-12-25T23:06:50.481Z,5.57
2022-12-25T23:09:24.399Z,6.73
2022-12-25T23:11:51.434Z,5.97
2022-12-25T23:14:36.487Z,6.57
2022-12-25T23:17:03.341Z,6.60
2022-12-25T23:19:48.611Z,5.72
2022-12-25T23:22:34.020Z,5.93
2022-12-25T23:25:23.578Z,6.40
2022-12-25T23:27:49.979Z,6.18
2022-12-25T23:30:16.806Z,6.57
2022-12-25T23:32:44.091Z,5.85
2022-12-25T23:35:11.787Z,6.23
2022-12-25T23:37:38.325Z,5.85
2022-12-25T23:40:05.318Z,5.90
2022-12-25T23:42:31.856Z,5.85
2022-12-25T23:44:58.343Z,6.30
2022-12-25T23:47:24.758Z,5.73
2022-12-25T23:49:51.143Z,6.22
2022-12-25T23:52:17.545Z,5.40
2022-12-25T23:54:43.929Z,5.80
2022-12-25T23:57:10.471Z,6.32
2022-12-25T23:59:36.891Z,5.53
